Terminal Aerodrome Forecast
Issued by NWS

Home | Current Version | Previous Version | Text Only | Print | Product List | Glossary On
Versions: 1 2 3 4 5 6 7 8 9 10 11 12 13 14 15 16 17 18 19 20 21 22 23 24 25 26 27 28 29 30 31 32 33 34 35 36 37 38 39 40 41 42 43 44
000
FTUS45 KSLC 220035 AAA
TAFEVW
TAF AMD
KEVW 220035Z 2201/2224 19011G17KT P6SM -SHRA SCT030 BKN050
     FM220500 28007KT 5SM -RASN SCT015 BKN030
     FM221200 25009KT 6SM -SHSN SCT015 BKN030
     FM221800 25011G17KT 6SM -SHSN SCT020 BKN050=

USA.gov is the U.S. government's official web portal to all federal, state and local government web resources and services.